Terminal Aerodrome Forecast
Issued by NWS

Home | Current Version | Previous Version | Text Only | Print | Product List | Glossary On
Versions: 1 2 3 4 5 6 7 8 9 10 11 12 13 14 15 16 17 18 19 20 21 22
000
FTUS43 KMKX 311120
TAFENW
TAF
KENW 311120Z 3112/0112 10004KT P6SM BKN070
     FM311500 11007KT P6SM BKN080
     FM312100 10008KT P6SM SCT040 SCT090
     FM312200 11008KT P6SM VCTS SCT040 BKN090CB
     FM010400 13004KT P6SM VCTS SCT040 BKN090CB=

USA.gov is the U.S. government's official web portal to all federal, state and local government web resources and services.